createdAt,value
2018-11-05T00:00:39.500Z,16.57
2018-11-05T00:03:11.949Z,17.40
2018-11-05T00:05:41.972Z,18.23
2018-11-05T00:08:12.211Z,19.63
2018-11-05T00:10:44.397Z,19.40
2018-11-05T00:13:14.534Z,17.93
2018-11-05T00:15:45.680Z,17.57
2018-11-05T00:18:15.722Z,17.50
2018-11-05T00:20:45.791Z,16.60
2018-11-05T00:23:16.193Z,17.17
2018-11-05T00:25:46.243Z,18.37
2018-11-05T00:28:16.275Z,18.77
2018-11-05T00:30:46.451Z,17.60
2018-11-05T00:33:18.748Z,19.30
2018-11-05T00:35:48.831Z,18.47
2018-11-05T00:38:20.062Z,19.43
2018-11-05T00:40:50.133Z,21.17
2018-11-05T00:43:20.166Z,22.60
2018-11-05T00:45:50.499Z,21.67
2018-11-05T00:48:20.543Z,19.60
2018-11-05T00:50:50.677Z,20.73
2018-11-05T00:53:20.856Z,21.47
2018-11-05T00:55:50.858Z,19.67
2018-11-05T00:58:20.910Z,21.70
2018-11-05T01:00:51.062Z,20.23
2018-11-05T01:03:23.921Z,19.33
2018-11-05T01:05:54.050Z,20.17
2018-11-05T01:08:24.214Z,20.20
2018-11-05T01:10:54.305Z,20.30
2018-11-05T01:13:26.954Z,20.50
2018-11-05T01:15:57.068Z,22.80
2018-11-05T01:18:27.092Z,22.00
2018-11-05T01:20:58.150Z,20.90
2018-11-05T01:23:28.277Z,22.57
2018-11-05T01:25:58.296Z,21.70
2018-11-05T01:28:29.659Z,22.87
2018-11-05T01:30:58.682Z,22.20
2018-11-05T01:33:28.720Z,20.43
2018-11-05T01:36:01.102Z,22.30
2018-11-05T01:38:31.118Z,22.53
2018-11-05T01:41:00.054Z,23.00
2018-11-05T01:43:30.476Z,20.40
2018-11-05T01:46:00.642Z,19.17
2018-11-05T01:48:30.666Z,18.70
2018-11-05T01:51:04.087Z,17.93
2018-11-05T01:53:38.187Z,18.17
2018-11-05T01:56:07.241Z,19.00
2018-11-05T01:58:37.358Z,17.63
2018-11-05T02:01:07.394Z,18.30
2018-11-05T02:03:38.710Z,16.70
2018-11-05T02:06:08.875Z,17.60
2018-11-05T02:08:39.026Z,18.00
2018-11-05T02:11:09.704Z,17.43
2018-11-05T02:13:48.700Z,17.80
2018-11-05T02:16:20.519Z,18.30
2018-11-05T02:18:53.287Z,18.23
2018-11-05T02:21:23.420Z,17.13
2018-11-05T02:23:57.650Z,17.87
2018-11-05T02:26:27.685Z,17.33
2018-11-05T02:28:57.726Z,18.30
2018-11-05T02:31:29.907Z,17.27
2018-11-05T02:34:00.141Z,17.47
2018-11-05T02:36:30.469Z,17.70
2018-11-05T02:39:03.089Z,17.73
2018-11-05T02:41:33.313Z,16.43
2018-11-05T02:44:03.332Z,17.10
2018-11-05T02:46:33.321Z,17.37
2018-11-05T02:49:03.424Z,17.17
2018-11-05T02:51:33.557Z,16.73
2018-11-05T02:54:04.669Z,17.70
2018-11-05T02:56:34.844Z,19.30
2018-11-05T02:59:04.901Z,20.30
2018-11-05T03:01:35.976Z,19.03
2018-11-05T03:04:12.382Z,19.50
2018-11-05T03:06:42.585Z,19.87
2018-11-05T03:09:14.516Z,20.67
2018-11-05T03:11:46.131Z,20.10
2018-11-05T03:14:16.256Z,20.70
2018-11-05T03:16:45.241Z,22.13
2018-11-05T03:19:15.487Z,21.53
2018-11-05T03:21:45.519Z,21.57
2018-11-05T03:24:17.621Z,22.90
2018-11-05T03:26:48.046Z,23.60
2018-11-05T03:29:20.336Z,22.33
2018-11-05T03:32:05.626Z,26.10
2018-11-05T03:34:42.742Z,39.63
2018-11-05T03:37:11.932Z,26.90
2018-11-05T03:39:44.538Z,24.00
2018-11-05T03:42:14.650Z,25.87
2018-11-05T03:44:44.983Z,26.57
2018-11-05T03:47:20.143Z,23.93
2018-11-05T03:49:50.745Z,22.93
2018-11-05T03:52:23.017Z,24.33
2018-11-05T03:54:53.157Z,32.50
2018-11-05T03:57:25.645Z,23.87
2018-11-05T03:59:55.622Z,25.30
2018-11-05T04:02:28.076Z,24.20
2018-11-05T04:05:03.610Z,21.90
2018-11-05T04:07:33.832Z,31.47
2018-11-05T04:10:03.956Z,32.60
2018-11-05T04:12:34.291Z,25.20
2018-11-05T04:15:04.455Z,23.43
2018-11-05T04:17:36.104Z,24.77
2018-11-05T04:20:09.811Z,47.27
2018-11-05T04:22:40.955Z,23.60
2018-11-05T04:25:09.387Z,41.20
2018-11-05T04:27:39.689Z,31.27
2018-11-05T04:30:12.288Z,23.97
2018-11-05T04:32:42.579Z,23.40
2018-11-05T04:35:12.939Z,22.40
2018-11-05T04:37:42.823Z,23.27
2018-11-05T04:40:12.864Z,28.63
2018-11-05T04:42:46.578Z,27.80
2018-11-05T04:45:15.121Z,25.67
2018-11-05T04:47:45.109Z,24.93
2018-11-05T04:53:09.138Z,24.17
2018-11-05T04:55:39.033Z,24.43
2018-11-05T04:58:08.980Z,25.13
2018-11-05T05:00:38.884Z,29.00
2018-11-05T05:03:08.992Z,35.70
2018-11-05T05:05:39.655Z,35.47
2018-11-05T05:08:09.846Z,34.07
2018-11-05T05:10:39.864Z,32.10
2018-11-05T05:13:10.263Z,32.80
2018-11-05T05:15:40.360Z,33.67
2018-11-05T05:18:10.295Z,31.07
2018-11-05T05:20:40.207Z,31.57
2018-11-05T05:23:10.279Z,31.02
2018-11-05T05:25:40.173Z,30.03
2018-11-05T05:28:11.239Z,30.77
2018-11-05T05:30:41.115Z,29.03
2018-11-05T05:33:11.106Z,27.50
2018-11-05T05:35:40.940Z,30.00
2018-11-05T05:38:10.844Z,29.10
2018-11-05T05:40:40.773Z,30.30
2018-11-05T05:43:11.545Z,28.40
2018-11-05T05:45:41.429Z,29.80
2018-11-05T05:48:11.308Z,26.87
2018-11-05T05:50:41.225Z,29.70
2018-11-05T05:53:11.090Z,25.50
2018-11-05T05:55:41.206Z,32.60
2018-11-05T05:58:11.384Z,31.60
2018-11-05T06:00:41.362Z,32.03
2018-11-05T06:03:11.397Z,31.27
2018-11-05T06:05:41.576Z,32.70
2018-11-05T06:08:11.507Z,33.07
2018-11-05T06:10:41.612Z,24.07
2018-11-05T06:13:11.673Z,26.17
2018-11-05T06:15:41.814Z,21.57
2018-11-05T06:18:11.914Z,21.17
2018-11-05T06:20:42.245Z,20.20
2018-11-05T06:23:12.303Z,20.27
2018-11-05T06:25:42.535Z,21.33
2018-11-05T06:28:13.131Z,20.87
2018-11-05T06:30:43.204Z,21.53
2018-11-05T06:33:13.247Z,19.40
2018-11-05T06:35:45.152Z,21.30
2018-11-05T06:38:15.357Z,20.23
2018-11-05T06:40:45.394Z,19.17
2018-11-05T06:43:15.365Z,19.23
2018-11-05T06:45:45.468Z,19.37
2018-11-05T06:48:15.406Z,18.17
2018-11-05T06:50:48.515Z,16.40
2018-11-05T06:53:18.390Z,17.80
2018-11-05T06:55:48.464Z,19.63
2018-11-05T06:58:18.640Z,18.00
2018-11-05T07:00:48.778Z,18.87
2018-11-05T07:03:18.862Z,18.03
2018-11-05T07:05:48.991Z,17.60
2018-11-05T07:08:19.047Z,18.00
2018-11-05T07:10:49.083Z,18.73
2018-11-05T07:13:19.256Z,19.20
2018-11-05T07:15:49.340Z,17.30
2018-11-05T07:18:19.527Z,24.77
2018-11-05T07:20:51.870Z,22.33
2018-11-05T07:23:22.114Z,16.67
2018-11-05T07:25:52.150Z,15.80
2018-11-05T07:28:23.105Z,14.37
2018-11-05T07:30:53.145Z,15.07
2018-11-05T07:33:23.158Z,16.20
2018-11-05T07:35:53.835Z,15.83
2018-11-05T07:38:23.854Z,15.67
2018-11-05T07:40:53.991Z,15.30
2018-11-05T07:43:24.658Z,14.53
2018-11-05T07:45:54.567Z,14.50
2018-11-05T07:48:24.447Z,12.40
2018-11-05T07:50:54.802Z,13.13
2018-11-05T07:53:24.779Z,12.97
2018-11-05T07:55:54.795Z,12.30
2018-11-05T07:58:27.810Z,11.33
2018-11-05T08:00:58.987Z,12.50
2018-11-05T08:03:30.773Z,13.30
2018-11-05T08:06:00.655Z,12.80
2018-11-05T08:08:30.601Z,14.07
2018-11-05T08:11:00.610Z,13.03
2018-11-05T08:13:30.510Z,14.77
2018-11-05T08:16:00.430Z,13.27
2018-11-05T08:18:30.368Z,14.30
2018-11-05T08:21:00.268Z,15.07
2018-11-05T08:23:30.173Z,14.13
2018-11-05T08:26:00.111Z,12.17
2018-11-05T08:28:29.995Z,12.00
2018-11-05T08:30:59.903Z,11.40
2018-11-05T08:33:30.530Z,12.40
2018-11-05T08:36:00.416Z,12.90
2018-11-05T08:38:30.313Z,13.80
2018-11-05T08:41:00.543Z,13.40
2018-11-05T08:43:30.428Z,14.30
2018-11-05T08:46:00.301Z,13.03
2018-11-05T08:48:30.248Z,13.93
2018-11-05T08:51:00.264Z,13.10
2018-11-05T08:53:30.058Z,13.13
2018-11-05T08:56:00.546Z,13.30
2018-11-05T08:58:30.455Z,12.50
2018-11-05T09:01:19.956Z,12.87
2018-11-05T09:03:51.118Z,13.67
2018-11-05T09:06:21.017Z,11.90
2018-11-05T09:08:50.920Z,11.60
2018-11-05T09:11:21.299Z,12.57
2018-11-05T09:13:52.864Z,13.27
2018-11-05T09:16:22.905Z,13.13
2018-11-05T09:18:52.965Z,13.27
2018-11-05T09:21:23.387Z,13.53
2018-11-05T09:23:53.345Z,13.40
2018-11-05T09:26:23.472Z,13.50
2018-11-05T09:28:53.436Z,13.27
2018-11-05T09:31:23.631Z,14.23
2018-11-05T09:33:53.660Z,14.70
2018-11-05T09:36:24.574Z,14.10
2018-11-05T09:38:54.459Z,12.70
2018-11-05T09:41:24.579Z,12.13
2018-11-05T09:43:54.997Z,13.50
2018-11-05T09:46:25.050Z,13.30
2018-11-05T09:48:55.097Z,13.13
2018-11-05T09:51:26.891Z,14.60
2018-11-05T09:53:57.099Z,15.37
2018-11-05T09:56:27.468Z,12.43
2018-11-05T09:58:57.416Z,18.70
2018-11-05T10:01:27.327Z,11.43
2018-11-05T10:03:58.039Z,12.90
2018-11-05T10:06:28.657Z,11.80
2018-11-05T10:08:58.528Z,10.67
2018-11-05T10:11:28.419Z,12.57
2018-11-05T10:13:58.571Z,11.47
2018-11-05T10:16:28.522Z,11.47
2018-11-05T10:18:58.339Z,10.80
2018-11-05T10:21:29.020Z,12.43
2018-11-05T10:23:58.918Z,11.20
2018-11-05T10:26:28.805Z,11.10
2018-11-05T10:28:58.736Z,9.70
2018-11-05T10:31:29.363Z,11.07
2018-11-05T10:33:59.251Z,10.80
2018-11-05T10:36:30.771Z,10.77
2018-11-05T10:39:00.637Z,10.90
2018-11-05T10:41:30.517Z,11.23
2018-11-05T10:44:00.578Z,11.17
2018-11-05T10:46:30.479Z,9.93
2018-11-05T10:49:00.460Z,12.33
2018-11-05T10:51:31.404Z,10.83
2018-11-05T10:54:01.250Z,9.63
2018-11-05T10:56:31.126Z,10.70
2018-11-05T10:59:01.966Z,11.73
2018-11-05T11:01:49.036Z,10.23
2018-11-05T11:04:35.504Z,10.00
2018-11-05T11:07:05.569Z,10.43
2018-11-05T11:09:35.492Z,9.90
2018-11-05T11:12:06.472Z,10.40
2018-11-05T11:14:36.355Z,10.70
2018-11-05T11:17:06.406Z,11.40
2018-11-05T11:19:37.669Z,9.50
2018-11-05T11:22:07.606Z,9.97
2018-11-05T11:24:37.468Z,10.00
2018-11-05T11:27:09.628Z,10.03
2018-11-05T11:29:39.498Z,10.17
2018-11-05T11:32:09.396Z,10.23
2018-11-05T11:34:40.449Z,17.67
2018-11-05T11:37:10.388Z,17.03
2018-11-05T11:39:40.191Z,10.60
2018-11-05T11:42:10.162Z,13.10
2018-11-05T11:44:40.392Z,15.83
2018-11-05T11:47:10.504Z,16.70
2018-11-05T11:49:40.835Z,10.93
2018-11-05T11:52:10.743Z,11.57
2018-11-05T11:54:40.609Z,10.63
2018-11-05T11:57:10.528Z,12.40
2018-11-05T11:59:40.411Z,11.73
2018-11-05T12:02:17.098Z,11.90
2018-11-05T12:04:46.991Z,11.90
2018-11-05T12:07:16.996Z,11.80
2018-11-05T12:09:46.945Z,11.47
2018-11-05T12:12:17.000Z,13.07
2018-11-05T12:17:17.450Z,23.50
2018-11-05T12:19:47.578Z,12.50
2018-11-05T12:22:17.721Z,11.60
2018-11-05T12:24:47.697Z,12.50
2018-11-05T12:27:17.598Z,12.77
2018-11-05T12:29:48.517Z,12.77
2018-11-05T12:32:18.581Z,12.80
2018-11-05T12:34:48.912Z,10.77
2018-11-05T12:37:20.403Z,9.80
2018-11-05T12:39:50.517Z,8.40
2018-11-05T12:42:20.447Z,6.30
2018-11-05T12:44:50.691Z,7.27
2018-11-05T12:47:20.694Z,7.00
2018-11-05T12:49:50.758Z,7.03
2018-11-05T12:52:20.746Z,6.60
2018-11-05T12:54:50.810Z,7.20
2018-11-05T12:57:21.464Z,6.40
2018-11-05T12:59:51.389Z,7.00
2018-11-05T13:02:24.919Z,6.23
2018-11-05T13:04:58.228Z,6.30
2018-11-05T13:07:28.103Z,6.33
2018-11-05T13:09:57.997Z,6.30
2018-11-05T13:12:28.233Z,6.77
2018-11-05T13:14:58.267Z,6.77
2018-11-05T13:17:28.168Z,6.00
2018-11-05T13:20:00.381Z,8.70
2018-11-05T13:22:30.319Z,6.83
2018-11-05T13:25:00.195Z,6.27
2018-11-05T13:27:30.678Z,6.67
2018-11-05T13:30:00.720Z,6.50
2018-11-05T13:32:30.748Z,6.10
2018-11-05T13:35:00.929Z,8.07
2018-11-05T13:37:31.291Z,7.60
2018-11-05T13:40:01.164Z,6.67
2018-11-05T13:42:32.228Z,6.97
2018-11-05T13:45:02.381Z,6.60
2018-11-05T13:47:33.169Z,6.93
2018-11-05T13:50:03.649Z,6.53
2018-11-05T13:52:33.733Z,8.60
2018-11-05T13:55:03.963Z,6.83
2018-11-05T13:57:34.109Z,7.30
2018-11-05T14:00:04.132Z,6.67
2018-11-05T14:02:33.969Z,7.63
2018-11-05T14:05:04.155Z,7.33
2018-11-05T14:07:34.080Z,7.37
2018-11-05T14:10:04.141Z,7.73
2018-11-05T14:12:34.223Z,6.97
2018-11-05T14:15:04.217Z,8.83
2018-11-05T14:17:34.338Z,7.80
2018-11-05T14:20:05.488Z,7.67
2018-11-05T14:22:35.636Z,7.97
2018-11-05T14:25:05.662Z,7.90
2018-11-05T14:27:36.653Z,8.40
2018-11-05T14:30:07.755Z,16.63
2018-11-05T14:32:37.517Z,8.10
2018-11-05T14:35:08.351Z,8.30
2018-11-05T14:37:38.236Z,8.13
2018-11-05T14:40:09.238Z,8.30
2018-11-05T14:42:39.578Z,7.87
2018-11-05T14:45:17.233Z,8.00
2018-11-05T14:47:48.455Z,6.97
2018-11-05T14:50:19.983Z,8.00
2018-11-05T14:52:49.980Z,7.97
2018-11-05T14:55:20.604Z,8.23
2018-11-05T14:57:51.599Z,8.17
2018-11-05T15:00:25.789Z,9.00
2018-11-05T15:02:56.707Z,9.20
2018-11-05T15:05:26.781Z,9.37
2018-11-05T15:07:57.624Z,8.90
2018-11-05T15:10:27.668Z,7.90
2018-11-05T15:12:57.691Z,8.60
2018-11-05T15:15:28.719Z,8.23
2018-11-05T15:17:58.611Z,7.63
2018-11-05T15:20:28.582Z,7.40
2018-11-05T15:22:58.911Z,7.43
2018-11-05T15:25:29.027Z,7.27
2018-11-05T15:27:59.130Z,7.87
2018-11-05T15:30:29.438Z,7.30
2018-11-05T15:32:59.629Z,7.77
2018-11-05T15:35:29.508Z,9.13
2018-11-05T15:38:00.598Z,8.70
2018-11-05T15:40:30.490Z,7.17
2018-11-05T15:43:00.388Z,6.43
2018-11-05T15:45:31.524Z,6.40
2018-11-05T15:48:01.643Z,7.33
2018-11-05T15:50:31.581Z,7.90
2018-11-05T15:53:02.437Z,6.97
2018-11-05T15:55:31.944Z,8.03
2018-11-05T15:58:01.981Z,8.20
2018-11-05T16:00:32.413Z,8.63
2018-11-05T16:03:02.909Z,7.83
2018-11-05T16:05:33.115Z,8.97
2018-11-05T16:08:03.459Z,8.67
2018-11-05T16:10:33.625Z,9.80
2018-11-05T16:13:03.629Z,11.33
2018-11-05T16:15:33.708Z,12.80
2018-11-05T16:18:03.913Z,15.53
2018-11-05T16:20:33.943Z,19.07
2018-11-05T16:23:04.174Z,15.53
2018-11-05T16:25:34.113Z,21.37
2018-11-05T16:28:03.977Z,18.20
2018-11-05T16:30:33.938Z,23.33
2018-11-05T16:33:03.867Z,17.60
2018-11-05T16:35:33.837Z,12.53
2018-11-05T16:38:05.564Z,14.07
2018-11-05T16:40:35.438Z,16.57
2018-11-05T16:43:05.322Z,41.10
2018-11-05T16:45:35.295Z,9.20
2018-11-05T16:48:05.140Z,14.93
2018-11-05T16:50:35.039Z,15.03
2018-11-05T16:53:05.810Z,21.00
2018-11-05T16:55:35.698Z,22.63
2018-11-05T16:58:05.726Z,13.83
2018-11-05T17:00:35.957Z,29.47
2018-11-05T17:03:06.746Z,25.90
2018-11-05T17:05:36.692Z,26.57
2018-11-05T17:08:07.322Z,16.27
2018-11-05T17:10:37.384Z,26.87
2018-11-05T17:13:07.682Z,33.00
2018-11-05T17:15:38.375Z,13.80
2018-11-05T17:18:08.303Z,12.90
2018-11-05T17:20:38.194Z,12.87
2018-11-05T17:23:08.167Z,11.90
2018-11-05T17:25:38.059Z,13.80
2018-11-05T17:28:07.981Z,13.67
2018-11-05T17:30:38.258Z,14.50
2018-11-05T17:33:27.112Z,13.97
2018-11-05T17:35:57.568Z,19.47
2018-11-05T17:38:27.624Z,20.30
2018-11-05T17:40:57.651Z,16.77
2018-11-05T17:43:27.593Z,17.40
2018-11-05T17:45:57.462Z,19.80
2018-11-05T17:48:27.396Z,17.70
2018-11-05T17:50:57.836Z,15.90
2018-11-05T17:53:27.584Z,18.70
2018-11-05T17:55:57.471Z,22.07
2018-11-05T17:58:29.622Z,22.83
2018-11-05T18:00:59.520Z,20.70
2018-11-05T18:03:29.408Z,21.17
2018-11-05T18:06:00.098Z,21.20
2018-11-05T18:08:30.001Z,46.33
2018-11-05T18:10:59.924Z,23.30
2018-11-05T18:13:30.076Z,22.47
2018-11-05T18:16:00.061Z,23.20
2018-11-05T18:18:29.978Z,21.57
2018-11-05T18:21:00.774Z,23.80
2018-11-05T18:23:30.683Z,27.10
2018-11-05T18:26:00.585Z,27.27
2018-11-05T18:28:30.855Z,25.60
2018-11-05T18:33:31.036Z,22.80
2018-11-05T18:36:02.046Z,22.77
2018-11-05T18:38:31.929Z,28.70
2018-11-05T18:41:01.854Z,23.63
2018-11-05T18:43:32.675Z,21.77
2018-11-05T18:46:02.617Z,22.97
2018-11-05T18:48:32.768Z,21.00
2018-11-05T18:51:03.006Z,19.10
2018-11-05T18:53:32.951Z,22.10
2018-11-05T18:56:02.846Z,19.20
2018-11-05T18:58:33.090Z,19.53
2018-11-05T19:01:02.977Z,18.97
2018-11-05T19:03:33.069Z,21.23
2018-11-05T19:06:03.144Z,19.13
2018-11-05T19:08:33.974Z,20.00
2018-11-05T19:11:04.697Z,18.93
2018-11-05T19:13:34.628Z,19.30
2018-11-05T19:16:04.592Z,19.07
2018-11-05T19:18:34.679Z,18.20
2018-11-05T19:21:04.577Z,21.57
2018-11-05T19:23:34.655Z,18.23
2018-11-05T19:26:05.265Z,18.30
2018-11-05T19:28:35.279Z,18.23
2018-11-05T19:31:05.159Z,19.93
2018-11-05T19:33:35.687Z,20.83
2018-11-05T19:36:06.615Z,19.73
2018-11-05T19:38:36.562Z,20.80
2018-11-05T19:41:11.277Z,20.37
2018-11-05T19:43:41.143Z,20.47
2018-11-05T19:46:11.045Z,21.27
2018-11-05T19:48:41.219Z,26.00
2018-11-05T19:51:11.139Z,21.03
2018-11-05T19:53:41.315Z,21.20
2018-11-05T19:56:12.355Z,24.00
2018-11-05T19:58:42.410Z,23.50
2018-11-05T20:01:12.538Z,23.50
2018-11-05T20:03:43.092Z,23.10
2018-11-05T20:06:13.039Z,22.87
2018-11-05T20:08:43.055Z,24.43
2018-11-05T20:11:13.253Z,23.17
2018-11-05T20:13:43.287Z,24.13
2018-11-05T20:16:13.380Z,22.50
2018-11-05T20:18:45.590Z,22.63
2018-11-05T20:21:15.618Z,24.40
2018-11-05T20:23:45.823Z,23.10
2018-11-05T20:26:16.508Z,23.13
2018-11-05T20:28:46.662Z,23.30
2018-11-05T20:31:16.745Z,26.87
2018-11-05T20:33:49.862Z,24.43
2018-11-05T20:36:19.880Z,24.77
2018-11-05T20:38:50.014Z,25.30
2018-11-05T20:41:20.936Z,25.80
2018-11-05T20:43:51.007Z,26.17
2018-11-05T20:46:21.172Z,28.33
2018-11-05T20:48:52.514Z,29.10
2018-11-05T20:51:22.420Z,28.60
2018-11-05T20:53:52.489Z,27.50
2018-11-05T20:56:23.459Z,29.27
2018-11-05T20:58:53.696Z,29.40
2018-11-05T21:01:25.587Z,31.07
2018-11-05T21:03:57.509Z,30.10
2018-11-05T21:06:27.437Z,31.07
2018-11-05T21:08:57.653Z,30.23
2018-11-05T21:11:27.612Z,32.70
2018-11-05T21:13:57.510Z,35.03
2018-11-05T21:16:27.440Z,34.53
2018-11-05T21:18:57.873Z,34.37
2018-11-05T21:21:27.976Z,34.97
2018-11-05T21:23:58.083Z,36.87
2018-11-05T21:26:29.353Z,37.50
2018-11-05T21:28:59.397Z,40.10
2018-11-05T21:31:29.409Z,38.50
2018-11-05T21:36:29.795Z,40.23
2018-11-05T21:38:59.939Z,42.77
2018-11-05T21:41:30.341Z,37.83
2018-11-05T21:44:00.390Z,36.80
2018-11-05T21:46:30.544Z,38.23
2018-11-05T21:49:00.712Z,35.27
2018-11-05T21:51:30.759Z,37.70
2018-11-05T21:54:00.839Z,36.83
2018-11-05T21:56:30.962Z,35.10
2018-11-05T21:59:01.015Z,37.33
2018-11-05T22:01:31.152Z,35.90
2018-11-05T22:04:02.078Z,36.20
2018-11-05T22:06:32.045Z,36.87
2018-11-05T22:09:02.081Z,35.93
2018-11-05T22:11:32.413Z,37.10
2018-11-05T22:14:02.451Z,37.50
2018-11-05T22:16:32.584Z,37.70
2018-11-05T22:19:03.785Z,36.23
2018-11-05T22:21:33.874Z,36.63
2018-11-05T22:24:03.813Z,36.80
2018-11-05T22:26:34.051Z,34.80
2018-11-05T22:29:04.186Z,34.37
2018-11-05T22:31:34.231Z,34.40
2018-11-05T22:34:04.951Z,35.40
2018-11-05T22:36:35.007Z,34.50
2018-11-05T22:39:05.204Z,33.73
2018-11-05T22:41:35.218Z,34.23
2018-11-05T22:44:05.346Z,31.80
2018-11-05T22:46:35.441Z,31.37
2018-11-05T22:49:06.197Z,33.47
2018-11-05T22:51:36.231Z,33.60
2018-11-05T22:54:06.222Z,33.47
2018-11-05T22:56:37.014Z,32.57
2018-11-05T22:59:06.918Z,32.63
2018-11-05T23:01:57.248Z,33.30
2018-11-05T23:04:27.273Z,34.07
2018-11-05T23:06:57.165Z,32.50
2018-11-05T23:09:28.929Z,34.10
2018-11-05T23:11:58.804Z,32.60
2018-11-05T23:14:28.684Z,29.83
2018-11-05T23:16:58.914Z,30.97
2018-11-05T23:19:29.010Z,30.60
2018-11-05T23:21:59.055Z,30.37
2018-11-05T23:24:29.463Z,29.87
2018-11-05T23:26:59.529Z,29.00
2018-11-05T23:29:29.428Z,29.50
2018-11-05T23:31:59.550Z,24.40
2018-11-05T23:34:29.444Z,24.80
2018-11-05T23:36:59.359Z,24.27
2018-11-05T23:39:29.341Z,23.77
2018-11-05T23:41:59.529Z,24.13
2018-11-05T23:44:29.564Z,23.97
2018-11-05T23:47:00.611Z,25.30
2018-11-05T23:49:30.646Z,23.10
2018-11-05T23:52:00.767Z,23.50
2018-11-05T23:54:30.854Z,22.97
2018-11-05T23:57:01.070Z,22.47
2018-11-05T23:59:31.092Z,23.37
